Azurina — SD2515 — position and weather

sailwx.info

Track history (hours):
 
Tides and Currents Weather Stations Pressure Air Temp Water Temp Dewpoint Dewpoint Depression Visibility Wind Speed Wind Dir Waves Ship Positions

Azurina

Last reported at 2017-May-28 16:46 UTC. Time now 2017-May-28 18:30 UTC.
Position N 59°45' E 018°44'.

Length 10 m.

Type: Sailing vessel. MMSI: 265610180.

Date/timePositionNaut miles runAvg speedWind from/ knotsBaromVisibWave heightAir tempDewpointWater temp
2017-May-28 16:46N 59°45' E 018°44'0 1.6
2017-May-28 16:30N 59°46' E 018°44'2 4.9
2017-May-28 16:00N 59°46' E 018°49'2 4.7
2017-May-28 15:30N 59°47' E 018°54'3 5.0
2017-May-28 15:00N 59°46' E 018°59'1 0.5
2017-May-28 13:59N 59°47' E 018°60'0 0.0
2017-May-28 12:56N 59°47' E 018°60'0 0.0
2017-May-28 09:37N 59°47' E 018°60'0 3.3
2017-May-28 09:30N 59°46' E 018°59'3 6.4
2017-May-28 08:59N 59°47' E 018°52'3 6.4
2017-May-28 08:30N 59°46' E 018°46'2 0.1
2017-May-27 10:11N 59°45' E 018°44'0 2.5
2017-May-27 10:00N 59°46' E 018°44'3 5.9
2017-May-27 09:30N 59°46' E 018°50'3 6.0
2017-May-27 09:00N 59°47' E 018°56'2 0.1
2017-May-26 19:32N 59°47' E 018°60'0 0.0
2017-May-26 19:23N 59°47' E 018°60'0 0.0
2017-May-26 18:53N 59°47' E 018°60'0 0.0
2017-May-26 18:29N 59°47' E 018°60'0 0.1
2017-May-26 18:00N 59°47' E 018°60'3 5.5
2017-May-26 17:30N 59°47' E 018°54'3 5.7
2017-May-26 17:00N 59°46' E 018°49'  
2017-May-20 13:43N 59°45' E 018°43'1 1.9
2017-May-20 13:25N 59°46' E 018°45'0 0.2
2017-May-20 12:45N 59°45' E 018°45'0 0.4
2017-May-20 12:10N 59°46' E 018°44'0 0.7
2017-May-20 11:56N 59°46' E 018°45'0 1.1
2017-May-20 11:30N 59°45' E 018°44'0 0.7
2017-May-20 11:00N 59°45' E 018°44'0 0.9
2017-May-20 10:29N 59°45' E 018°44'0 0.9
2017-May-20 10:00N 59°46' E 018°44'0 0.5
2017-May-20 09:30N 59°46' E 018°45'0 0.4
2017-May-20 09:00N 59°45' E 018°44'0 0.6
2017-May-20 08:29N 59°46' E 018°45'0 0.4
2017-May-20 08:00N 59°46' E 018°45'1 0.6
2017-May-20 07:01N 59°45' E 018°44'0 0.0
2017-May-20 06:52N 59°45' E 018°44'  
Track history (hours):
 
Tides and Currents Weather Stations Pressure Air Temp Water Temp Dewpoint Dewpoint Depression Visibility Wind Speed Wind Dir Waves Ship Positions

Azurina

Last reported at 2017-May-28 16:46 UTC. Time now 2017-May-28 18:30 UTC.
Position N 59°45' E 018°44'.

Length 10 m.

Type: Sailing vessel. MMSI: 265610180.

Date/timePositionNaut miles runAvg speedWind from/ knotsBaromVisibWave heightAir tempDewpointWater temp
2017-May-28 16:46N 59°45' E 018°44'0 1.6
2017-May-28 16:30N 59°46' E 018°44'2 4.9
2017-May-28 16:00N 59°46' E 018°49'2 4.7
2017-May-28 15:30N 59°47' E 018°54'3 5.0
2017-May-28 15:00N 59°46' E 018°59'1 0.5
2017-May-28 13:59N 59°47' E 018°60'0 0.0
2017-May-28 12:56N 59°47' E 018°60'0 0.0
2017-May-28 09:37N 59°47' E 018°60'0 3.3
2017-May-28 09:30N 59°46' E 018°59'3 6.4
2017-May-28 08:59N 59°47' E 018°52'3 6.4
2017-May-28 08:30N 59°46' E 018°46'2 0.1
2017-May-27 10:11N 59°45' E 018°44'0 2.5
2017-May-27 10:00N 59°46' E 018°44'3 5.9
2017-May-27 09:30N 59°46' E 018°50'3 6.0
2017-May-27 09:00N 59°47' E 018°56'2 0.1
2017-May-26 19:32N 59°47' E 018°60'0 0.0
2017-May-26 19:23N 59°47' E 018°60'0 0.0
2017-May-26 18:53N 59°47' E 018°60'0 0.0
2017-May-26 18:29N 59°47' E 018°60'0 0.1
2017-May-26 18:00N 59°47' E 018°60'3 5.5
2017-May-26 17:30N 59°47' E 018°54'3 5.7
2017-May-26 17:00N 59°46' E 018°49'  
2017-May-20 13:43N 59°45' E 018°43'1 1.9
2017-May-20 13:25N 59°46' E 018°45'0 0.2
2017-May-20 12:45N 59°45' E 018°45'0 0.4
2017-May-20 12:10N 59°46' E 018°44'0 0.7
2017-May-20 11:56N 59°46' E 018°45'0 1.1
2017-May-20 11:30N 59°45' E 018°44'0 0.7
2017-May-20 11:00N 59°45' E 018°44'0 0.9
2017-May-20 10:29N 59°45' E 018°44'0 0.9
2017-May-20 10:00N 59°46' E 018°44'0 0.5
2017-May-20 09:30N 59°46' E 018°45'0 0.4
2017-May-20 09:00N 59°45' E 018°44'0 0.6
2017-May-20 08:29N 59°46' E 018°45'0 0.4
2017-May-20 08:00N 59°46' E 018°45'1 0.6
2017-May-20 07:01N 59°45' E 018°44'0 0.0
2017-May-20 06:52N 59°45' E 018°44'  

Dump ship's entire track history